Time;durP1;ratioP1;P1;durP2;ratioP2;P2;SDS_P1;SDS_P2;PMS_P1;PMS_P2;Temp;Humidity;BMP_temperature;BMP_pressure;BME280_temperature;BME280_humidity;BME280_pressure;Samples;Min_cycle;Max_cycle;Signal;HPM_P1;HPM_P2
2021/12/22 00:01:05;;;;;;;;;;;;;;;-144.99;100.00;52656.00;5073482;28;20004;-61
2021/12/22 00:03:31;;;;;;;;;;;;;;;-144.99;100.00;52688.63;5075718;28;20291;-60
2021/12/22 00:05:58;;;;;;;;;;;;;;;-144.99;100.00;52656.00;5079011;28;20003;-61
2021/12/22 00:08:26;;;;;;;;;;;;;;;-144.99;100.00;52684.53;5078718;28;19988;-60
2021/12/22 00:10:52;;;;;;;;;;;;;;;-144.99;100.00;52676.38;5079178;28;19997;-61
2021/12/22 00:13:18;;;;;;;;;;;;;;;-144.99;100.00;52680.47;5073600;28;20377;-61
2021/12/22 00:15:46;;;;;;;;;;;;;;;-144.99;100.00;52678.44;5076060;28;19981;-60
2021/12/22 00:18:12;;;;;;;;;;;;;;;-144.99;100.00;52680.47;5071597;28;20007;-62
2021/12/22 00:20:39;;;;;;;;;;;;;;;-144.99;100.00;52686.59;5070629;28;20343;-62
2021/12/22 00:23:05;;;;;;;;;;;;;;;-144.99;100.00;52692.69;5069556;28;19955;-63
2021/12/22 00:25:32;;;;;;;;;;;;;;;-144.99;100.00;52719.19;5069313;28;19993;-61
2021/12/22 00:27:59;;;;;;;;;;;;;;;-144.99;100.00;52680.47;5071005;28;19999;-61
2021/12/22 00:30:26;;;;;;;;;;;;;;;-144.99;100.00;52717.16;5070677;28;19985;-63
2021/12/22 00:33:01;;;;;;;;;;;;;;;-144.99;100.00;52700.84;5071049;28;20079;-62
2021/12/22 00:35:30;;;;;;;;;;;;;;;-144.99;100.00;52684.53;4712337;28;10000016;-61
2021/12/22 00:37:57;;;;;;;;;;;;;;;-144.99;100.00;52711.03;5070794;28;20004;-62
2021/12/22 00:40:23;;;;;;;;;;;;;;;-144.99;100.00;52674.34;5069615;28;19984;-61
2021/12/22 00:42:50;;;;;;;;;;;;;;;-144.99;100.00;52684.53;5064135;28;20419;-61
2021/12/22 00:45:18;;;;;;;;;;;;;;;-144.99;100.00;52704.94;5070984;28;20168;-61
2021/12/22 00:47:44;;;;;;;;;;;;;;;-144.99;100.00;52692.69;5072666;28;20004;-61
2021/12/22 00:50:12;;;;;;;;;;;;;;;-144.99;100.00;52688.63;5071082;28;20277;-62
2021/12/22 00:52:38;;;;;;;;;;;;;;;-144.99;100.00;52715.13;5072863;28;19980;-62
2021/12/22 00:55:05;;;;;;;;;;;;;;;-144.99;100.00;52668.22;5068149;28;19989;-61
2021/12/22 00:57:32;;;;;;;;;;;;;;;-144.99;100.00;52717.16;5070533;28;20433;-61
2021/12/22 00:59:58;;;;;;;;;;;;;;;-144.99;100.00;52700.84;5073354;28;20457;-61
2021/12/22 01:02:24;;;;;;;;;;;;;;;-144.99;100.00;52684.53;5072113;28;19981;-61
2021/12/22 01:04:51;;;;;;;;;;;;;;;-144.99;100.00;52674.34;5065214;28;20469;-62
2021/12/22 01:07:18;;;;;;;;;;;;;;;-144.99;100.00;52704.94;5073378;28;20484;-63
2021/12/22 01:09:45;;;;;;;;;;;;;;;-144.99;100.00;52692.69;5074024;28;20004;-61
2021/12/22 01:12:12;;;;;;;;;;;;;;;-144.99;100.00;52713.09;5067547;28;19981;-61
2021/12/22 01:14:39;;;;;;;;;;;;;;;-144.99;100.00;52676.38;5078130;22;20475;-65
2021/12/22 01:17:06;;;;;;;;;;;;;;;-144.99;100.00;52682.50;5072754;28;19973;-65
2021/12/22 01:19:40;;;;;;;;;;;;;;;-144.99;100.00;52702.88;5073542;28;20524;-64
2021/12/22 01:22:19;;;;;;;;;;;;;;;-144.99;100.00;52692.69;5074831;28;20031;-63
2021/12/22 01:24:49;;;;;;;;;;;;;;;-144.99;100.00;52692.69;5070545;28;19997;-63
2021/12/22 01:27:21;;;;;;;;;;;;;;;-144.99;100.00;52700.84;5074581;28;19996;-63
2021/12/22 01:29:47;;;;;;;;;;;;;;;-144.99;100.00;52700.84;5073285;28;20028;-63
2021/12/22 01:32:15;;;;;;;;;;;;;;;-144.99;100.00;52692.69;5073546;28;19981;-63
2021/12/22 01:34:42;;;;;;;;;;;;;;;-144.99;100.00;52672.31;5071013;28;19997;-62
2021/12/22 01:37:08;;;;;;;;;;;;;;;-144.99;100.00;52700.84;5072240;28;19999;-62
2021/12/22 01:39:35;;;;;;;;;;;;;;;-144.99;100.00;52704.94;5072116;28;19980;-62
2021/12/22 01:42:02;;;;;;;;;;;;;;;-144.99;100.00;52680.47;5072446;28;20359;-62
2021/12/22 01:44:34;;;;;;;;;;;;;;;-144.99;100.00;52676.38;5069310;28;19989;-62
2021/12/22 01:49:50;;;;;;;;;;;;;;;-144.99;100.00;52688.63;5073022;28;20022;-61
2021/12/22 01:52:17;;;;;;;;;;;;;;;-144.99;100.00;52704.94;5071134;28;19981;-62
2021/12/22 01:54:46;;;;;;;;;;;;;;;-144.99;100.00;52694.72;5068602;28;19999;-62
2021/12/22 01:57:14;;;;;;;;;;;;;;;-144.99;100.00;52698.81;5072793;28;20018;-61
2021/12/22 01:59:43;;;;;;;;;;;;;;;-144.99;100.00;52700.84;5072818;28;19992;-61
2021/12/22 02:02:10;;;;;;;;;;;;;;;-144.99;100.00;52680.47;5071783;28;20003;-61
2021/12/22 02:04:38;;;;;;;;;;;;;;;-144.99;100.00;52668.22;5070985;28;19996;-61
2021/12/22 02:07:05;;;;;;;;;;;;;;;-144.99;100.00;52713.09;5072429;28;19992;-61
2021/12/22 02:09:53;;;;;;;;;;;;;;;-144.99;100.00;52700.84;5071518;28;20368;-62
2021/12/22 02:12:21;;;;;;;;;;;;;;;-144.99;100.00;52682.50;5072572;28;20361;-62
2021/12/22 02:14:47;;;;;;;;;;;;;;;-144.99;100.00;52688.63;5070705;28;19997;-62
2021/12/22 02:17:14;;;;;;;;;;;;;;;-144.99;100.00;52709.00;5071952;28;19981;-61
2021/12/22 02:19:43;;;;;;;;;;;;;;;-144.99;100.00;52692.69;5072376;28;20000;-62
2021/12/22 02:22:12;;;;;;;;;;;;;;;-144.99;100.00;52692.69;5067697;28;19977;-61
2021/12/22 02:24:39;;;;;;;;;;;;;;;-144.99;100.00;52680.47;5066395;28;20003;-61
2021/12/22 02:27:11;;;;;;;;;;;;;;;-144.99;100.00;52651.94;5071724;28;20089;-61
2021/12/22 02:29:39;;;;;;;;;;;;;;;-144.99;100.00;52676.38;5072343;28;20056;-62
2021/12/22 02:32:11;;;;;;;;;;;;;;;-144.99;100.00;52688.63;5071971;28;20009;-63
2021/12/22 02:34:42;;;;;;;;;;;;;;;-144.99;100.00;52706.97;5070056;28;19993;-62
2021/12/22 02:37:13;;;;;;;;;;;;;;;-144.99;100.00;52684.53;5071375;28;19977;-62
2021/12/22 02:39:45;;;;;;;;;;;;;;;-144.99;100.00;52672.31;5071780;28;19981;-62
2021/12/22 02:42:12;;;;;;;;;;;;;;;-144.99;100.00;52651.94;5071953;28;20466;-61
2021/12/22 02:44:39;;;;;;;;;;;;;;;-144.99;100.00;52651.94;5069792;28;20032;-60
2021/12/22 02:47:15;;;;;;;;;;;;;;;-144.99;100.00;52680.47;5071276;28;20000;-61
2021/12/22 02:49:41;;;;;;;;;;;;;;;-144.99;100.00;52709.00;5071329;28;20516;-62
2021/12/22 02:52:08;;;;;;;;;;;;;;;-144.99;100.00;52713.09;5071885;28;20373;-62
2021/12/22 02:54:42;;;;;;;;;;;;;;;-144.99;100.00;52660.09;5070360;28;19997;-61
2021/12/22 02:57:25;;;;;;;;;;;;;;;-144.99;100.00;52647.84;5064792;28;20341;-60
2021/12/22 03:00:11;;;;;;;;;;;;;;;-144.99;100.00;52696.78;5060275;28;19980;-61
2021/12/22 03:02:44;;;;;;;;;;;;;;;-144.99;100.00;52700.84;5071444;28;20505;-61
2021/12/22 03:05:10;;;;;;;;;;;;;;;-144.99;100.00;52696.78;5069497;28;19992;-61
2021/12/22 03:07:38;;;;;;;;;;;;;;;-144.99;100.00;52696.78;5071526;28;19996;-62
2021/12/22 03:10:06;;;;;;;;;;;;;;;-144.99;100.00;52709.00;5071435;28;20071;-63
2021/12/22 03:12:35;;;;;;;;;;;;;;;-144.99;100.00;52674.34;5066281;28;20044;-63
2021/12/22 03:15:03;;;;;;;;;;;;;;;-144.99;100.00;52678.44;5070718;28;20383;-62
2021/12/22 03:17:29;;;;;;;;;;;;;;;-144.99;100.00;52676.38;5070705;28;19976;-62
2021/12/22 03:19:55;;;;;;;;;;;;;;;-144.99;100.00;52664.16;5072883;28;19977;-62
2021/12/22 03:22:23;;;;;;;;;;;;;;;-144.99;100.00;52721.22;5070926;28;19984;-62
2021/12/22 03:24:51;;;;;;;;;;;;;;;-144.99;100.00;52672.31;5070856;28;19979;-63
2021/12/22 03:27:18;;;;;;;;;;;;;;;-144.99;100.00;52676.38;5069616;28;20457;-62
2021/12/22 03:29:45;;;;;;;;;;;;;;;-144.99;100.00;52688.63;5071523;28;19976;-62
2021/12/22 03:32:11;;;;;;;;;;;;;;;-144.99;100.00;52694.72;5071288;28;19988;-62
2021/12/22 03:34:38;;;;;;;;;;;;;;;-144.99;100.00;52653.97;5070881;28;19996;-62
2021/12/22 03:37:05;;;;;;;;;;;;;;;-144.99;100.00;52678.44;5069383;28;19980;-62
2021/12/22 03:39:32;;;;;;;;;;;;;;;-144.99;100.00;52704.94;5062503;28;20067;-62
2021/12/22 03:41:59;;;;;;;;;;;;;;;-144.99;100.00;52680.47;5071478;28;20450;-62
2021/12/22 03:44:26;;;;;;;;;;;;;;;-144.99;100.00;52656.00;5068468;28;20373;-62
2021/12/22 03:46:53;;;;;;;;;;;;;;;-144.99;100.00;52664.16;5069697;28;19977;-62
2021/12/22 03:49:19;;;;;;;;;;;;;;;-144.99;100.00;52692.69;5070868;28;19977;-62
2021/12/22 03:51:46;;;;;;;;;;;;;;;-144.99;100.00;52684.53;5071700;28;20464;-62
2021/12/22 03:54:13;;;;;;;;;;;;;;;-144.99;100.00;52684.53;5070623;28;20033;-62
2021/12/22 03:56:40;;;;;;;;;;;;;;;-144.99;100.00;52653.97;5070096;28;19982;-62
2021/12/22 03:59:06;;;;;;;;;;;;;;;-144.99;100.00;52678.44;5071218;28;19946;-62
2021/12/22 04:01:34;;;;;;;;;;;;;;;-144.99;100.00;52690.66;5071117;28;19981;-60
2021/12/22 04:04:06;;;;;;;;;;;;;;;-144.99;100.00;52668.22;5070716;28;20005;-60
2021/12/22 04:06:32;;;;;;;;;;;;;;;-144.99;100.00;52668.22;5071557;28;20497;-60
2021/12/22 04:08:59;;;;;;;;;;;;;;;-144.99;100.00;52684.53;5069697;28;20003;-61
2021/12/22 04:11:25;;;;;;;;;;;;;;;-144.99;100.00;52688.63;5071311;28;19977;-60
2021/12/22 04:13:51;;;;;;;;;;;;;;;-144.99;100.00;52709.00;5073415;28;20012;-59
2021/12/22 04:16:18;;;;;;;;;;;;;;;-144.99;100.00;52721.22;5072583;28;20034;-65
2021/12/22 04:18:45;;;;;;;;;;;;;;;-144.99;100.00;52690.66;5069568;28;19977;-61
2021/12/22 04:21:12;;;;;;;;;;;;;;;-144.99;100.00;52651.94;5071692;28;20068;-61
2021/12/22 04:23:38;;;;;;;;;;;;;;;-144.99;100.00;52656.00;5070029;28;20091;-61
2021/12/22 04:26:05;;;;;;;;;;;;;;;-144.99;100.00;52706.97;5074708;28;19979;-64
2021/12/22 04:28:31;;;;;;;;;;;;;;;-144.99;100.00;52731.44;5072491;28;19997;-61
2021/12/22 04:30:57;;;;;;;;;;;;;;;-144.99;100.00;52709.00;5074676;28;19999;-61
2021/12/22 04:33:24;;;;;;;;;;;;;;;-144.99;100.00;52692.69;5073537;28;19987;-62
2021/12/22 04:35:53;;;;;;;;;;;;;;;-144.99;100.00;52700.84;5074443;28;20207;-67
2021/12/22 04:38:20;;;;;;;;;;;;;;;-144.99;100.00;52651.94;5073142;28;21243;-66
2021/12/22 04:40:46;;;;;;;;;;;;;;;-144.99;100.00;52672.31;5075539;28;19995;-65
2021/12/22 04:43:13;;;;;;;;;;;;;;;-144.99;100.00;52647.84;5095745;28;19981;-65
2021/12/22 04:45:39;;;;;;;;;;;;;;;-144.99;100.00;52662.13;5077267;28;19983;-65
2021/12/22 04:48:06;;;;;;;;;;;;;;;-144.99;100.00;52721.22;5074027;28;19997;-66
2021/12/22 04:50:33;;;;;;;;;;;;;;;-144.99;100.00;52684.53;5072319;28;19977;-66
2021/12/22 04:53:06;;;;;;;;;;;;;;;-144.99;100.00;52643.78;5074370;28;19977;-67
2021/12/22 04:55:36;;;;;;;;;;;;;;;-144.99;100.00;52676.38;5072982;28;20003;-66
2021/12/22 04:58:02;;;;;;;;;;;;;;;-144.99;100.00;52674.34;5075145;28;20023;-66
2021/12/22 05:00:30;;;;;;;;;;;;;;;-144.99;100.00;52666.19;5070842;28;20441;-63
2021/12/22 05:02:57;;;;;;;;;;;;;;;-144.99;100.00;52700.84;5074123;28;19977;-64
2021/12/22 05:05:23;;;;;;;;;;;;;;;-144.99;100.00;52676.38;5073688;28;20004;-63
2021/12/22 05:07:50;;;;;;;;;;;;;;;-144.99;100.00;52684.53;5073960;28;20488;-67
2021/12/22 05:10:18;;;;;;;;;;;;;;;-144.99;100.00;52704.94;5072591;28;19977;-64
2021/12/22 05:12:46;;;;;;;;;;;;;;;-144.99;100.00;52662.13;5073312;28;19977;-64
2021/12/22 05:15:12;;;;;;;;;;;;;;;-144.99;100.00;52686.59;5073239;28;19997;-62
2021/12/22 05:18:01;;;;;;;;;;;;;;;-144.99;100.00;52684.53;5073873;28;19980;-63
2021/12/22 05:20:26;;;;;;;;;;;;;;;-144.99;100.00;52656.00;5071379;28;20441;-62
2021/12/22 05:22:53;;;;;;;;;;;;;;;-144.99;100.00;52660.09;5073044;28;19984;-63
2021/12/22 05:25:21;;;;;;;;;;;;;;;-144.99;100.00;52680.47;5073028;28;19993;-62
2021/12/22 05:27:47;;;;;;;;;;;;;;;-144.99;100.00;52686.59;5073851;28;20488;-64
2021/12/22 05:30:14;;;;;;;;;;;;;;;-144.99;100.00;52668.22;5072228;28;19981;-63
2021/12/22 05:32:41;;;;;;;;;;;;;;;-144.99;100.00;52709.00;5070961;28;19977;-63
2021/12/22 05:35:09;;;;;;;;;;;;;;;-144.99;100.00;52660.09;5072964;28;20083;-63
2021/12/22 05:37:36;;;;;;;;;;;;;;;-144.99;100.00;52690.66;5073796;28;20444;-63
2021/12/22 05:40:03;;;;;;;;;;;;;;;-144.99;100.00;52725.31;5073252;28;19980;-62
2021/12/22 05:42:31;;;;;;;;;;;;;;;-144.99;100.00;52700.84;5072557;28;20464;-62
2021/12/22 05:44:57;;;;;;;;;;;;;;;-144.99;100.00;52717.16;5082523;28;19977;-63
2021/12/22 05:47:24;;;;;;;;;;;;;;;-144.99;100.00;52670.28;5082364;28;19983;-62
2021/12/22 05:49:50;;;;;;;;;;;;;;;-144.99;100.00;52674.34;5088494;28;20052;-62
2021/12/22 05:52:17;;;;;;;;;;;;;;;-144.99;100.00;52676.38;5092842;28;19977;-63
2021/12/22 05:54:45;;;;;;;;;;;;;;;-144.99;100.00;52684.53;5086996;28;20060;-63
2021/12/22 05:57:11;;;;;;;;;;;;;;;-144.99;100.00;52682.50;5090158;28;20004;-62
2021/12/22 05:59:39;;;;;;;;;;;;;;;-144.99;100.00;52680.47;5094021;28;19995;-63
2021/12/22 06:02:05;;;;;;;;;;;;;;;-144.99;100.00;52692.69;5088477;28;19983;-62
2021/12/22 06:04:32;;;;;;;;;;;;;;;-144.99;100.00;52647.84;5091024;28;19999;-63
2021/12/22 06:06:58;;;;;;;;;;;;;;;-144.99;100.00;52678.44;4739086;28;9999902;-63
2021/12/22 06:09:25;;;;;;;;;;;;;;;-144.99;100.00;52700.84;5082715;28;20023;-63
2021/12/22 06:11:51;;;;;;;;;;;;;;;-144.99;100.00;52704.94;5073931;28;20040;-63
2021/12/22 06:14:17;;;;;;;;;;;;;;;-144.99;100.00;52668.22;5070579;28;20348;-63
2021/12/22 06:16:45;;;;;;;;;;;;;;;-144.99;100.00;52656.00;5071274;28;19985;-63
2021/12/22 06:19:13;;;;;;;;;;;;;;;-144.99;100.00;52688.63;5062382;28;19981;-62
2021/12/22 06:21:39;;;;;;;;;;;;;;;-144.99;100.00;52717.16;5070627;28;19995;-64
2021/12/22 06:24:06;;;;;;;;;;;;;;;-144.99;100.00;52643.78;5065640;28;19992;-62
2021/12/22 06:26:32;;;;;;;;;;;;;;;-144.99;100.00;52706.97;5067456;28;19988;-64
2021/12/22 06:28:59;;;;;;;;;;;;;;;-144.99;100.00;52680.47;5069438;28;19996;-63
2021/12/22 06:31:25;;;;;;;;;;;;;;;-144.99;100.00;52676.38;5069642;28;19985;-62
2021/12/22 06:33:53;;;;;;;;;;;;;;;-144.99;100.00;52666.19;5069527;28;20003;-62
2021/12/22 06:36:19;;;;;;;;;;;;;;;-144.99;100.00;52684.53;5067722;28;20046;-62
2021/12/22 06:38:46;;;;;;;;;;;;;;;-144.99;100.00;52680.47;5069439;28;19987;-62
2021/12/22 06:41:12;;;;;;;;;;;;;;;-144.99;100.00;52721.22;5069284;28;20491;-62
2021/12/22 06:43:39;;;;;;;;;;;;;;;-144.99;100.00;52684.53;5069212;28;20023;-61
2021/12/22 06:46:05;;;;;;;;;;;;;;;-144.99;100.00;52668.22;5068134;28;19981;-62
2021/12/22 06:48:31;;;;;;;;;;;;;;;-144.99;100.00;52670.28;5068888;28;19996;-62
2021/12/22 06:50:59;;;;;;;;;;;;;;;-144.99;100.00;52680.47;5070049;28;19981;-62
2021/12/22 06:53:25;;;;;;;;;;;;;;;-144.99;100.00;52629.50;5069263;28;20445;-62
2021/12/22 06:55:52;;;;;;;;;;;;;;;-144.99;100.00;52715.13;5069320;28;19981;-62
2021/12/22 06:58:20;;;;;;;;;;;;;;;-144.99;100.00;52664.16;5082674;28;20043;-62
2021/12/22 07:00:46;;;;;;;;;;;;;;;-144.99;100.00;52684.53;5082795;28;19980;-63
2021/12/22 07:03:13;;;;;;;;;;;;;;;-144.99;100.00;52711.03;5069485;28;19981;-63
2021/12/22 07:05:39;;;;;;;;;;;;;;;-144.99;100.00;52668.22;5069560;28;20024;-62
2021/12/22 07:08:07;;;;;;;;;;;;;;;-144.99;100.00;52692.69;5060037;28;19999;-63
2021/12/22 07:10:33;;;;;;;;;;;;;;;-144.99;100.00;52680.47;5068759;28;20063;-63
2021/12/22 07:13:00;;;;;;;;;;;;;;;-144.99;100.00;52717.16;5064578;28;19980;-63
2021/12/22 07:15:26;;;;;;;;;;;;;;;-144.99;100.00;52676.38;5060959;22;20392;-65
2021/12/22 07:17:52;;;;;;;;;;;;;;;-144.99;100.00;52660.09;5027694;28;19969;-63
2021/12/22 07:20:19;;;;;;;;;;;;;;;-144.99;100.00;52713.09;5032308;28;19982;-63
2021/12/22 07:22:46;;;;;;;;;;;;;;;-144.99;100.00;52696.78;5037170;28;20092;-64
2021/12/22 07:25:17;;;;;;;;;;;;;;;-144.99;100.00;52690.66;5027011;28;20357;-69
2021/12/22 07:27:43;;;;;;;;;;;;;;;-144.99;100.00;52692.69;5025699;28;20040;-67
2021/12/22 07:30:10;;;;;;;;;;;;;;;-144.99;100.00;52694.72;5040980;28;19966;-64
2021/12/22 07:32:37;;;;;;;;;;;;;;;-144.99;100.00;52696.78;5035831;28;20005;-65
2021/12/22 07:35:06;;;;;;;;;;;;;;;-144.99;100.00;52668.22;5029127;28;20008;-65
2021/12/22 07:37:38;;;;;;;;;;;;;;;-144.99;100.00;52639.69;5032740;28;19981;-65
2021/12/22 07:40:05;;;;;;;;;;;;;;;-144.99;100.00;52696.78;5033735;28;19983;-64
2021/12/22 07:42:32;;;;;;;;;;;;;;;-144.99;100.00;52629.50;5032187;28;19996;-63
2021/12/22 07:44:59;;;;;;;;;;;;;;;-144.99;100.00;52696.78;5027326;28;20468;-64
2021/12/22 07:47:25;;;;;;;;;;;;;;;-144.99;100.00;52670.28;5038324;28;20317;-63
2021/12/22 07:49:51;;;;;;;;;;;;;;;-144.99;100.00;52688.63;5028800;28;19997;-62
2021/12/22 07:52:18;;;;;;;;;;;;;;;-144.99;100.00;52696.78;5033625;28;19989;-64
2021/12/22 07:54:44;;;;;;;;;;;;;;;-144.99;100.00;52651.94;5026102;28;20005;-65
2021/12/22 07:57:11;;;;;;;;;;;;;;;-144.99;100.00;52704.94;5027093;28;19994;-66
2021/12/22 07:59:38;;;;;;;;;;;;;;;-144.99;100.00;52692.69;5028831;28;19986;-63
2021/12/22 08:02:05;;;;;;;;;;;;;;;-144.99;100.00;52684.53;5043204;28;19977;-63
2021/12/22 08:04:31;;;;;;;;;;;;;;;-144.99;100.00;52680.47;5029977;28;20002;-62
2021/12/22 08:06:58;;;;;;;;;;;;;;;-144.99;100.00;52696.78;5029970;28;20302;-63
2021/12/22 08:09:26;;;;;;;;;;;;;;;-144.99;100.00;52688.63;5028874;28;20000;-63
2021/12/22 08:11:52;;;;;;;;;;;;;;;-144.99;100.00;52700.84;5040116;28;19999;-63
2021/12/22 08:14:19;;;;;;;;;;;;;;;-144.99;100.00;52670.28;5049433;28;20001;-64
2021/12/22 08:16:46;;;;;;;;;;;;;;;-144.99;100.00;52672.31;5034174;28;19997;-63
2021/12/22 08:19:13;;;;;;;;;;;;;;;-144.99;100.00;52684.53;5037933;28;19977;-64
2021/12/22 08:21:39;;;;;;;;;;;;;;;-144.99;100.00;52737.53;5032641;28;19993;-63
2021/12/22 08:24:06;;;;;;;;;;;;;;;-144.99;100.00;52668.22;5030225;28;20036;-63
2021/12/22 08:26:33;;;;;;;;;;;;;;;-144.99;100.00;52676.38;5040204;28;20397;-63
2021/12/22 08:29:00;;;;;;;;;;;;;;;-144.99;100.00;52692.69;5029892;28;20435;-63
2021/12/22 08:31:26;;;;;;;;;;;;;;;-144.99;100.00;52660.09;5033372;28;20394;-63
2021/12/22 08:33:55;;;;;;;;;;;;;;;-144.99;100.00;52678.44;5031028;28;20084;-64
2021/12/22 08:39:07;;;;;;;;;;;;;;;-144.99;100.00;52690.66;5029522;28;19983;-61
2021/12/22 08:41:35;;;;;;;;;;;;;;;-144.99;100.00;52692.69;5029941;28;19981;-61
2021/12/22 08:44:04;;;;;;;;;;;;;;;-144.99;100.00;52686.59;5046816;28;19997;-60
2021/12/22 08:46:30;;;;;;;;;;;;;;;-144.99;100.00;52709.00;5029556;28;19989;-61
2021/12/22 08:48:59;;;;;;;;;;;;;;;-144.99;100.00;52684.53;5029391;28;20350;-61
2021/12/22 08:51:25;;;;;;;;;;;;;;;-144.99;100.00;52678.44;5034929;28;20071;-61
2021/12/22 08:53:52;;;;;;;;;;;;;;;-144.99;100.00;52684.53;5040637;28;19996;-60
2021/12/22 08:56:19;;;;;;;;;;;;;;;-144.99;100.00;52692.69;5021819;28;20068;-60
2021/12/22 08:58:45;;;;;;;;;;;;;;;-144.99;100.00;52704.94;5029126;28;19981;-62
2021/12/22 09:01:11;;;;;;;;;;;;;;;-144.99;100.00;52680.47;5027681;28;21046;-60
2021/12/22 09:03:38;;;;;;;;;;;;;;;-144.99;100.00;52651.94;5036986;28;20355;-60
2021/12/22 09:06:05;;;;;;;;;;;;;;;-144.99;100.00;52672.31;5040847;28;20332;-60
2021/12/22 09:08:32;;;;;;;;;;;;;;;-144.99;100.00;52656.00;5028437;28;20437;-61
2021/12/22 09:10:59;;;;;;;;;;;;;;;-144.99;100.00;52656.00;5028687;28;19985;-61
2021/12/22 09:13:25;;;;;;;;;;;;;;;-144.99;100.00;52666.19;5033204;28;19982;-61
2021/12/22 09:15:52;;;;;;;;;;;;;;;-144.99;100.00;52660.09;5039592;28;19981;-62
2021/12/22 09:18:18;;;;;;;;;;;;;;;-144.99;100.00;52664.16;5033784;28;20426;-61
2021/12/22 09:20:46;;;;;;;;;;;;;;;-144.99;100.00;52698.81;5034428;28;20198;-61
2021/12/22 09:23:14;;;;;;;;;;;;;;;-144.99;100.00;52696.78;5029957;28;20023;-61
2021/12/22 09:25:40;;;;;;;;;;;;;;;-144.99;100.00;52656.00;5037511;28;20008;-61
2021/12/22 09:28:09;;;;;;;;;;;;;;;-144.99;100.00;52696.78;5030185;28;20186;-61
2021/12/22 09:30:38;;;;;;;;;;;;;;;-144.99;100.00;52664.16;5041065;28;20044;-61
2021/12/22 09:33:05;;;;;;;;;;;;;;;-144.99;100.00;52664.16;5052393;28;20398;-61
2021/12/22 09:35:31;;;;;;;;;;;;;;;-144.99;100.00;52688.63;5057850;28;19981;-59
2021/12/22 09:37:57;;;;;;;;;;;;;;;-144.99;100.00;52645.81;5051094;28;19981;-60
2021/12/22 09:40:25;;;;;;;;;;;;;;;-144.99;100.00;52668.22;5045915;28;19982;-60
2021/12/22 09:42:51;;;;;;;;;;;;;;;-144.99;100.00;52676.38;5055769;28;20036;-61
2021/12/22 09:45:19;;;;;;;;;;;;;;;-144.99;100.00;52656.00;5056739;28;20064;-66
2021/12/22 09:48:01;;;;;;;;;;;;;;;-144.99;100.00;52688.63;5060377;28;19981;-67
2021/12/22 09:50:44;;;;;;;;;;;;;;;-144.99;100.00;52643.78;5050020;28;20005;-66
2021/12/22 09:53:10;;;;;;;;;;;;;;;-144.99;100.00;52653.97;5051867;28;19984;-67
2021/12/22 09:55:38;;;;;;;;;;;;;;;-144.99;100.00;52664.16;5048118;28;20029;-66
2021/12/22 09:58:05;;;;;;;;;;;;;;;-144.99;100.00;52680.47;5037151;28;19988;-66
2021/12/22 10:00:35;;;;;;;;;;;;;;;-144.99;100.00;52676.38;5034625;28;20095;-67
2021/12/22 10:03:02;;;;;;;;;;;;;;;-144.99;100.00;52680.47;5037250;28;20362;-66
2021/12/22 10:05:28;;;;;;;;;;;;;;;-144.99;100.00;52709.00;5038036;28;20001;-66
2021/12/22 10:08:08;;;;;;;;;;;;;;;-144.99;100.00;52641.72;5037056;28;20477;-66
2021/12/22 10:10:35;;;;;;;;;;;;;;;-144.99;100.00;52637.66;5032511;28;20004;-66
2021/12/22 10:13:07;;;;;;;;;;;;;;;-144.99;100.00;52662.13;5035220;28;20064;-67
2021/12/22 10:15:35;;;;;;;;;;;;;;;-144.99;100.00;52651.94;5032394;28;20002;-67
2021/12/22 10:18:08;;;;;;;;;;;;;;;-144.99;100.00;52672.31;5031686;28;19996;-66
2021/12/22 10:20:35;;;;;;;;;;;;;;;-144.99;100.00;52643.78;5035592;28;19978;-67
2021/12/22 10:23:01;;;;;;;;;;;;;;;-144.99;100.00;52660.09;5028171;28;19985;-66
2021/12/22 10:25:31;;;;;;;;;;;;;;;-144.99;100.00;52676.38;5044451;28;20100;-66
2021/12/22 10:27:59;;;;;;;;;;;;;;;-144.99;100.00;52647.84;5028336;28;20047;-66
2021/12/22 10:30:31;;;;;;;;;;;;;;;-144.99;100.00;52676.38;5028230;28;20017;-66
2021/12/22 10:33:09;;;;;;;;;;;;;;;-144.99;100.00;52680.47;5027547;28;20442;-67
2021/12/22 10:35:37;;;;;;;;;;;;;;;-144.99;100.00;52670.28;5025906;28;19997;-68
2021/12/22 10:38:05;;;;;;;;;;;;;;;-144.99;100.00;52656.00;5032120;28;20451;-67
2021/12/22 10:40:32;;;;;;;;;;;;;;;-144.99;100.00;52656.00;5035531;28;20083;-66
2021/12/22 10:42:59;;;;;;;;;;;;;;;-144.99;100.00;52615.25;5028185;28;20055;-66
2021/12/22 10:45:28;;;;;;;;;;;;;;;-144.99;100.00;52690.66;5026207;28;19998;-67
2021/12/22 10:50:41;;;;;;;;;;;;;;;-144.99;100.00;52692.69;5026859;28;20048;-65
2021/12/22 10:53:08;;;;;;;;;;;;;;;-144.99;100.00;52690.66;5026863;28;19992;-66
2021/12/22 10:55:38;;;;;;;;;;;;;;;-144.99;100.00;52696.78;5024437;28;20361;-67
2021/12/22 10:58:15;;;;;;;;;;;;;;;-144.99;100.00;52674.34;5027378;28;19977;-66
2021/12/22 11:00:43;;;;;;;;;;;;;;;-144.99;100.00;52680.47;5036701;28;19973;-67
2021/12/22 11:03:13;;;;;;;;;;;;;;;-144.99;100.00;52674.34;5031458;28;19982;-66
2021/12/22 11:05:43;;;;;;;;;;;;;;;-144.99;100.00;52651.94;5031649;28;19999;-66
2021/12/22 11:08:17;;;;;;;;;;;;;;;-144.99;100.00;52688.63;5032482;28;20364;-67
2021/12/22 11:10:44;;;;;;;;;;;;;;;-144.99;100.00;52627.47;5027072;28;20442;-65
2021/12/22 11:13:10;;;;;;;;;;;;;;;-144.99;100.00;52711.03;5028724;28;19985;-66
2021/12/22 11:15:40;;;;;;;;;;;;;;;-144.99;100.00;52639.69;5035613;28;20019;-66
2021/12/22 11:18:08;;;;;;;;;;;;;;;-144.99;100.00;52635.63;5028527;28;20015;-66
2021/12/22 11:20:36;;;;;;;;;;;;;;;-144.99;100.00;52653.97;5034297;28;20022;-67
2021/12/22 11:23:12;;;;;;;;;;;;;;;-144.99;100.00;52651.94;5027659;28;19982;-66
2021/12/22 11:25:39;;;;;;;;;;;;;;;-144.99;100.00;52688.63;5026775;28;20005;-66
2021/12/22 11:28:06;;;;;;;;;;;;;;;-144.99;100.00;52662.13;5025897;28;20063;-66
2021/12/22 11:30:32;;;;;;;;;;;;;;;-144.99;100.00;52662.13;5034540;28;20012;-66
2021/12/22 11:32:59;;;;;;;;;;;;;;;-144.99;100.00;52717.16;5036847;28;20395;-66
2021/12/22 11:35:25;;;;;;;;;;;;;;;-144.99;100.00;52664.16;5034142;28;19990;-66
2021/12/22 11:37:55;;;;;;;;;;;;;;;-144.99;100.00;52625.44;5039196;28;20370;-65
2021/12/22 11:40:24;;;;;;;;;;;;;;;-144.99;100.00;52684.53;5042757;28;20434;-67
2021/12/22 11:42:50;;;;;;;;;;;;;;;-144.99;100.00;52662.13;5032900;28;20413;-66
2021/12/22 11:45:19;;;;;;;;;;;;;;;-144.99;100.00;52684.53;5026767;28;20004;-66
2021/12/22 11:47:46;;;;;;;;;;;;;;;-144.99;100.00;52666.19;5035424;28;20060;-66
2021/12/22 11:50:17;;;;;;;;;;;;;;;-144.99;100.00;52643.78;5044963;28;20007;-66
2021/12/22 11:52:44;;;;;;;;;;;;;;;-144.99;100.00;52664.16;5039919;28;19985;-67
2021/12/22 11:55:16;;;;;;;;;;;;;;;-144.99;100.00;52662.13;5031996;28;20005;-68
2021/12/22 11:57:43;;;;;;;;;;;;;;;-144.99;100.00;52619.31;5030741;28;20427;-67
2021/12/22 12:00:20;;;;;;;;;;;;;;;-144.99;100.00;52662.13;5041196;28;19984;-66
2021/12/22 12:02:47;;;;;;;;;;;;;;;-144.99;100.00;52603.00;5043666;28;19981;-67
2021/12/22 12:05:15;;;;;;;;;;;;;;;-144.99;100.00;52680.47;5030203;28;19982;-65
2021/12/22 12:07:42;;;;;;;;;;;;;;;-144.99;100.00;52639.69;5038429;28;19977;-67
2021/12/22 12:10:23;;;;;;;;;;;;;;;-144.99;100.00;52684.53;5038832;28;20111;-67
2021/12/22 12:12:55;;;;;;;;;;;;;;;-144.99;100.00;52631.53;5020176;28;20004;-67
2021/12/22 12:21:36;;;;;;;;;;;;;;;-144.99;100.00;52668.22;5032620;28;20006;-66
2021/12/22 12:21:51;;;;;;;;;;;;;;;-144.99;100.00;52696.78;5036353;28;20000;-66
2021/12/22 12:24:34;;;;;;;;;;;;;;;-144.99;100.00;52690.66;5029902;28;19997;-65
2021/12/22 12:27:01;;;;;;;;;;;;;;;-144.99;100.00;52619.31;5037378;28;20091;-66
2021/12/22 12:29:43;;;;;;;;;;;;;;;-144.99;100.00;52704.94;5036743;28;20246;-66
2021/12/22 12:32:30;;;;;;;;;;;;;;;-144.99;100.00;52637.66;5039597;28;19978;-66
2021/12/22 12:35:11;;;;;;;;;;;;;;;-144.99;100.00;52676.38;5038398;28;20274;-67